createdAt,value
2019-01-27T00:00:29.537Z,6.77
2019-01-27T00:02:58.383Z,6.43
2019-01-27T00:05:27.164Z,6.47
2019-01-27T00:07:55.924Z,6.53
2019-01-27T00:10:24.776Z,6.37
2019-01-27T00:12:53.601Z,6.37
2019-01-27T00:15:22.793Z,6.10
2019-01-27T00:17:51.524Z,6.17
2019-01-27T00:20:29.755Z,6.63
2019-01-27T00:22:58.436Z,6.47
2019-01-27T00:25:27.187Z,6.03
2019-01-27T00:27:55.986Z,6.30
2019-01-27T00:30:24.753Z,5.80
2019-01-27T00:32:53.564Z,6.77
2019-01-27T00:35:22.299Z,7.23
2019-01-27T00:37:51.052Z,6.33
2019-01-27T00:40:19.834Z,6.50
2019-01-27T00:42:48.556Z,6.50
2019-01-27T00:45:17.329Z,6.00
2019-01-27T00:47:46.056Z,7.00
2019-01-27T00:50:15.236Z,6.43
2019-01-27T00:52:44.004Z,6.67
2019-01-27T00:55:14.057Z,6.57
2019-01-27T00:57:42.713Z,6.57
2019-01-27T01:00:13.164Z,6.80
2019-01-27T01:02:41.974Z,6.87
2019-01-27T01:05:10.742Z,6.80
2019-01-27T01:07:39.549Z,5.67
2019-01-27T01:10:09.340Z,6.80
2019-01-27T01:12:38.028Z,5.63
2019-01-27T01:15:07.389Z,6.43
2019-01-27T01:17:36.101Z,6.10
2019-01-27T01:20:05.701Z,6.27
2019-01-27T01:22:34.921Z,6.00
2019-01-27T01:25:03.989Z,6.17
2019-01-27T01:27:32.740Z,5.67
2019-01-27T01:30:01.517Z,6.17
2019-01-27T01:32:30.270Z,6.50
2019-01-27T01:34:59.007Z,6.10
2019-01-27T01:37:27.636Z,5.87
2019-01-27T01:39:56.416Z,5.93
2019-01-27T01:42:25.090Z,6.00
2019-01-27T01:44:53.806Z,5.50
2019-01-27T01:47:22.529Z,5.73
2019-01-27T01:49:51.210Z,5.77
2019-01-27T01:52:19.998Z,5.97
2019-01-27T01:54:48.686Z,5.73
2019-01-27T01:57:17.400Z,5.67
2019-01-27T01:59:46.141Z,5.90
2019-01-27T02:02:14.954Z,6.57
2019-01-27T02:04:43.740Z,5.90
2019-01-27T02:07:12.450Z,5.97
2019-01-27T02:09:41.101Z,5.50
2019-01-27T02:12:09.820Z,6.27
2019-01-27T02:14:38.578Z,5.87
2019-01-27T02:17:07.285Z,5.77
2019-01-27T02:19:35.990Z,6.33
2019-01-27T02:22:04.700Z,5.83
2019-01-27T02:24:33.360Z,5.93
2019-01-27T02:27:02.062Z,5.63
2019-01-27T02:29:30.760Z,6.47
2019-01-27T02:31:59.597Z,6.33
2019-01-27T02:34:28.375Z,6.03
2019-01-27T02:36:57.153Z,5.60
2019-01-27T02:39:25.896Z,6.00
2019-01-27T02:41:54.596Z,6.10
2019-01-27T02:44:23.204Z,5.63
2019-01-27T02:46:51.936Z,5.40
2019-01-27T02:49:20.776Z,5.67
2019-01-27T02:51:49.498Z,5.40
2019-01-27T02:54:18.297Z,5.83
2019-01-27T02:56:47.005Z,6.13
2019-01-27T02:59:15.706Z,6.10
2019-01-27T03:01:44.511Z,5.10
2019-01-27T03:04:13.172Z,6.23
2019-01-27T03:06:49.042Z,6.07
2019-01-27T03:09:23.148Z,5.50
2019-01-27T03:11:51.936Z,6.07
2019-01-27T03:14:21.240Z,6.20
2019-01-27T03:16:51.461Z,5.50
2019-01-27T03:19:20.189Z,5.90
2019-01-27T03:21:48.915Z,5.63
2019-01-27T03:24:17.646Z,5.87
2019-01-27T03:26:46.317Z,5.47
2019-01-27T03:29:15.074Z,5.47
2019-01-27T03:31:43.802Z,6.07
2019-01-27T03:34:12.562Z,6.03
2019-01-27T03:36:41.304Z,5.93
2019-01-27T03:39:11.076Z,6.23
2019-01-27T03:41:39.789Z,6.27
2019-01-27T03:44:08.681Z,7.05
2019-01-27T03:46:37.490Z,6.30
2019-01-27T03:49:06.608Z,6.67
2019-01-27T03:51:35.324Z,6.62
2019-01-27T03:54:04.952Z,7.17
2019-01-27T03:56:33.816Z,7.15
2019-01-27T03:59:02.656Z,7.37
2019-01-27T04:01:31.460Z,7.42
2019-01-27T04:04:00.200Z,8.00
2019-01-27T04:06:28.996Z,7.55
2019-01-27T04:08:57.736Z,8.15
2019-01-27T04:11:27.759Z,7.50
2019-01-27T04:13:56.480Z,7.10
2019-01-27T04:16:25.263Z,6.95
2019-01-27T04:18:53.999Z,7.58
2019-01-27T04:21:22.760Z,7.77
2019-01-27T04:23:51.508Z,7.35
2019-01-27T04:26:20.203Z,8.65
2019-01-27T04:28:48.959Z,7.80
2019-01-27T04:31:17.763Z,8.15
2019-01-27T04:33:46.504Z,7.45
2019-01-27T04:36:15.322Z,8.63
2019-01-27T04:38:43.999Z,8.15
2019-01-27T04:41:14.917Z,8.53
2019-01-27T04:43:43.605Z,8.30
2019-01-27T04:46:12.343Z,8.80
2019-01-27T04:48:41.058Z,7.92
2019-01-27T04:51:09.738Z,8.35
2019-01-27T04:53:38.478Z,8.80
2019-01-27T04:56:07.217Z,8.55
2019-01-27T04:58:35.944Z,8.73
2019-01-27T05:01:04.953Z,8.75
2019-01-27T05:03:55.792Z,8.35
2019-01-27T05:06:24.555Z,7.50
2019-01-27T05:08:53.365Z,9.10
2019-01-27T05:11:22.049Z,8.40
2019-01-27T05:13:50.806Z,8.08
2019-01-27T05:16:19.821Z,8.05
2019-01-27T05:18:48.527Z,7.65
2019-01-27T05:21:17.240Z,8.75
2019-01-27T05:23:45.964Z,7.58
2019-01-27T05:26:14.740Z,7.28
2019-01-27T05:28:43.554Z,7.72
2019-01-27T05:31:12.344Z,7.08
2019-01-27T05:33:41.144Z,6.35
2019-01-27T05:36:09.856Z,6.92
2019-01-27T05:38:38.635Z,6.80
2019-01-27T05:41:07.348Z,5.85
2019-01-27T05:43:36.072Z,5.20
2019-01-27T05:46:06.677Z,5.10
2019-01-27T05:48:35.269Z,5.90
2019-01-27T05:51:04.145Z,4.92
2019-01-27T05:53:32.918Z,5.25
2019-01-27T05:56:01.778Z,4.37
2019-01-27T05:58:30.604Z,4.00
2019-01-27T06:00:59.438Z,4.40
2019-01-27T06:03:28.212Z,3.73
2019-01-27T06:05:56.927Z,3.80
2019-01-27T06:08:25.657Z,4.10
2019-01-27T06:10:54.358Z,3.40
2019-01-27T06:13:23.108Z,3.30
2019-01-27T06:15:51.776Z,3.53
2019-01-27T06:18:20.506Z,3.53
2019-01-27T06:20:49.179Z,3.70
2019-01-27T06:23:18.036Z,3.20
2019-01-27T06:25:46.777Z,3.50
2019-01-27T06:28:15.536Z,3.20
2019-01-27T06:30:44.250Z,3.30
2019-01-27T06:33:22.215Z,3.13
2019-01-27T06:35:51.088Z,3.77
2019-01-27T06:38:19.885Z,3.30
2019-01-27T06:40:48.608Z,2.60
2019-01-27T06:43:17.275Z,2.90
2019-01-27T06:45:46.043Z,2.73
2019-01-27T06:48:14.757Z,3.00
2019-01-27T06:50:43.491Z,2.50
2019-01-27T06:53:12.287Z,2.97
2019-01-27T06:55:41.115Z,2.50
2019-01-27T06:58:10.473Z,2.70
2019-01-27T07:00:56.674Z,2.87
2019-01-27T07:03:28.409Z,2.60
2019-01-27T07:06:25.195Z,3.50
2019-01-27T07:09:12.904Z,4.13
2019-01-27T07:11:59.313Z,4.63
2019-01-27T07:14:59.418Z,5.00
2019-01-27T07:17:46.127Z,4.27
2019-01-27T07:20:36.669Z,5.37
2019-01-27T07:23:28.841Z,5.10
2019-01-27T07:26:34.188Z,4.50
2019-01-27T07:29:25.184Z,4.90
2019-01-27T07:32:18.916Z,4.50
2019-01-27T07:35:06.436Z,4.97
2019-01-27T07:37:55.278Z,4.00
2019-01-27T07:40:46.026Z,3.97
2019-01-27T07:43:33.805Z,4.10
2019-01-27T07:46:16.577Z,3.77
2019-01-27T07:48:51.471Z,3.77
2019-01-27T07:51:44.350Z,3.50
2019-01-27T07:54:25.983Z,2.67
2019-01-27T07:57:12.239Z,2.67
2019-01-27T07:59:59.974Z,2.50
2019-01-27T08:03:02.995Z,2.57
2019-01-27T08:05:59.853Z,2.47
2019-01-27T08:09:05.877Z,2.90
2019-01-27T08:11:51.726Z,2.63
2019-01-27T08:14:36.157Z,2.93
2019-01-27T08:17:39.206Z,2.73
2019-01-27T08:20:30.150Z,2.63
2019-01-27T08:23:24.044Z,2.70
2019-01-27T08:26:01.517Z,2.53
2019-01-27T08:28:38.705Z,2.30
2019-01-27T08:31:32.281Z,3.03
2019-01-27T08:34:18.597Z,3.10
2019-01-27T08:36:59.268Z,2.90
2019-01-27T08:39:47.086Z,2.77
2019-01-27T08:42:37.582Z,2.13
2019-01-27T08:45:28.951Z,2.10
2019-01-27T08:47:57.677Z,2.27
2019-01-27T08:50:26.417Z,1.73
2019-01-27T08:52:55.187Z,2.00
2019-01-27T08:55:23.963Z,2.10
2019-01-27T08:57:52.704Z,1.50
2019-01-27T09:00:28.205Z,1.57
2019-01-27T09:03:24.797Z,1.67
2019-01-27T09:06:05.114Z,1.83
2019-01-27T09:08:43.425Z,1.40
2019-01-27T09:11:34.288Z,1.33
2019-01-27T09:14:31.092Z,1.40
2019-01-27T09:17:29.137Z,1.43
2019-01-27T09:20:12.643Z,1.63
2019-01-27T09:23:01.799Z,1.60
2019-01-27T09:25:41.185Z,1.63
2019-01-27T09:28:41.653Z,1.67
2019-01-27T09:31:35.294Z,1.80
2019-01-27T09:34:21.475Z,1.70
2019-01-27T09:37:03.287Z,1.93
2019-01-27T09:39:49.621Z,1.77
2019-01-27T09:42:40.226Z,1.60
2019-01-27T09:45:24.256Z,1.77
2019-01-27T09:48:24.093Z,1.80
2019-01-27T09:51:05.802Z,1.80
2019-01-27T09:54:11.800Z,1.50
2019-01-27T09:57:07.042Z,1.60
2019-01-27T09:59:46.780Z,1.80
2019-01-27T10:02:43.366Z,1.70
2019-01-27T10:05:31.240Z,1.83
2019-01-27T10:08:22.341Z,1.77
2019-01-27T10:11:08.501Z,1.90
2019-01-27T10:13:48.786Z,2.17
2019-01-27T10:16:36.640Z,2.00
2019-01-27T10:19:17.379Z,1.93
2019-01-27T10:21:54.140Z,2.00
2019-01-27T10:24:50.787Z,1.80
2019-01-27T10:27:41.843Z,1.80
2019-01-27T10:30:26.563Z,1.63
2019-01-27T10:33:20.305Z,1.87
2019-01-27T10:36:11.145Z,1.60
2019-01-27T10:39:00.540Z,1.83
2019-01-27T10:41:45.471Z,1.90
2019-01-27T10:44:31.975Z,1.70
2019-01-27T10:47:31.905Z,1.70
2019-01-27T10:50:05.985Z,1.70
2019-01-27T10:52:54.413Z,1.83
2019-01-27T10:55:34.049Z,1.97
2019-01-27T10:58:30.857Z,1.80
2019-01-27T11:01:24.788Z,1.87
2019-01-27T11:04:15.782Z,2.10
2019-01-27T11:07:02.431Z,1.80
2019-01-27T11:09:53.030Z,2.30
2019-01-27T11:12:43.529Z,2.00
2019-01-27T11:15:30.134Z,2.00
2019-01-27T11:18:22.424Z,2.60
2019-01-27T11:21:08.943Z,2.50
2019-01-27T11:24:02.633Z,2.27
2019-01-27T11:27:08.445Z,3.10
2019-01-27T11:29:58.847Z,2.57
2019-01-27T11:32:46.713Z,2.90
2019-01-27T11:35:43.207Z,2.90
2019-01-27T11:38:34.785Z,2.90
2019-01-27T11:41:34.468Z,2.70
2019-01-27T11:44:34.243Z,2.80
2019-01-27T11:47:31.145Z,2.50
2019-01-27T11:50:21.506Z,2.90
2019-01-27T11:52:56.458Z,2.40
2019-01-27T11:55:25.280Z,2.30
2019-01-27T11:57:54.234Z,2.03
2019-01-27T12:00:29.637Z,2.10
2019-01-27T12:02:58.463Z,1.90
2019-01-27T12:05:27.222Z,2.27
2019-01-27T12:07:55.887Z,2.30
2019-01-27T12:10:24.592Z,1.90
2019-01-27T12:12:53.375Z,1.93
2019-01-27T12:15:22.495Z,2.10
2019-01-27T12:17:51.281Z,2.17
2019-01-27T12:20:21.089Z,2.20
2019-01-27T12:22:49.989Z,1.57
2019-01-27T12:25:18.813Z,2.13
2019-01-27T12:27:47.529Z,1.90
2019-01-27T12:30:17.112Z,1.90
2019-01-27T12:32:45.975Z,2.20
2019-01-27T12:35:14.689Z,2.20
2019-01-27T12:37:43.441Z,2.00
2019-01-27T12:40:13.551Z,1.90
2019-01-27T12:42:42.449Z,2.20
2019-01-27T12:45:12.089Z,1.80
2019-01-27T12:47:40.857Z,2.60
2019-01-27T12:50:10.830Z,3.13
2019-01-27T12:52:39.694Z,2.27
2019-01-27T12:55:09.159Z,1.90
2019-01-27T12:57:37.940Z,1.83
2019-01-27T13:00:10.525Z,2.13
2019-01-27T13:02:39.265Z,2.07
2019-01-27T13:05:10.358Z,1.80
2019-01-27T13:07:38.538Z,2.00
2019-01-27T13:10:08.007Z,1.70
2019-01-27T13:12:36.770Z,2.00
2019-01-27T13:15:06.148Z,1.90
2019-01-27T13:17:34.902Z,2.30
2019-01-27T13:20:03.708Z,1.93
2019-01-27T13:22:32.493Z,1.93
2019-01-27T13:25:01.193Z,1.90
2019-01-27T13:27:29.966Z,1.80
2019-01-27T13:29:58.670Z,2.00
2019-01-27T13:32:27.414Z,1.70
2019-01-27T13:34:56.396Z,2.13
2019-01-27T13:37:25.113Z,1.80
2019-01-27T13:39:56.139Z,2.30
2019-01-27T13:42:24.946Z,2.43
2019-01-27T13:44:53.741Z,2.20
2019-01-27T13:47:22.482Z,1.97
2019-01-27T13:49:51.276Z,1.90
2019-01-27T13:52:20.103Z,2.10
2019-01-27T13:54:48.945Z,2.37
2019-01-27T13:57:17.621Z,1.80
2019-01-27T13:59:46.350Z,2.20
2019-01-27T14:02:15.076Z,1.90
2019-01-27T14:04:48.437Z,1.70
2019-01-27T14:07:14.285Z,1.70
2019-01-27T14:09:43.042Z,1.60
2019-01-27T14:12:11.751Z,1.73
2019-01-27T14:14:40.418Z,2.93
2019-01-27T14:17:09.145Z,1.83
2019-01-27T14:19:37.881Z,1.83
2019-01-27T14:22:06.573Z,2.00
2019-01-27T14:24:35.310Z,1.57
2019-01-27T14:27:04.147Z,1.73
2019-01-27T14:29:32.861Z,1.43
2019-01-27T14:32:01.619Z,1.70
2019-01-27T14:34:30.315Z,1.67
2019-01-27T14:36:59.071Z,1.30
2019-01-27T14:39:27.738Z,2.00
2019-01-27T14:41:56.526Z,1.70
2019-01-27T14:44:25.295Z,1.60
2019-01-27T14:46:54.057Z,1.90
2019-01-27T14:49:22.817Z,1.70
2019-01-27T14:51:51.530Z,1.50
2019-01-27T14:54:20.242Z,1.60
2019-01-27T14:56:49.012Z,1.40
2019-01-27T14:59:17.743Z,1.50
2019-01-27T15:01:46.454Z,1.40
2019-01-27T15:04:15.216Z,1.80
2019-01-27T15:06:43.911Z,1.53
2019-01-27T15:09:12.743Z,1.40
2019-01-27T15:11:41.387Z,1.37
2019-01-27T15:14:10.182Z,1.60
2019-01-27T15:16:38.909Z,1.60
2019-01-27T15:19:07.654Z,1.30
2019-01-27T15:21:36.321Z,1.57
2019-01-27T15:24:05.129Z,1.27
2019-01-27T15:26:33.922Z,1.33
2019-01-27T15:29:02.784Z,1.53
2019-01-27T15:31:31.541Z,1.70
2019-01-27T15:34:02.104Z,1.60
2019-01-27T15:36:30.999Z,1.70
2019-01-27T15:38:59.723Z,1.30
2019-01-27T15:41:28.657Z,1.73
2019-01-27T15:43:57.792Z,1.80
2019-01-27T15:46:27.553Z,2.00
2019-01-27T15:48:56.222Z,1.90
2019-01-27T15:51:24.966Z,1.93
2019-01-27T15:53:53.726Z,1.90
2019-01-27T15:56:22.463Z,1.83
2019-01-27T15:58:51.250Z,1.93
2019-01-27T16:01:19.995Z,1.77
2019-01-27T16:03:48.815Z,2.00
2019-01-27T16:06:17.527Z,2.60
2019-01-27T16:08:46.348Z,1.80
2019-01-27T16:11:15.154Z,1.77
2019-01-27T16:13:43.902Z,1.67
2019-01-27T16:16:12.796Z,1.60
2019-01-27T16:18:41.513Z,1.70
2019-01-27T16:21:11.155Z,1.70
2019-01-27T16:23:45.716Z,1.70
2019-01-27T16:26:14.404Z,1.50
2019-01-27T16:28:43.298Z,1.67
2019-01-27T16:31:31.066Z,1.80
2019-01-27T16:34:21.858Z,1.57
2019-01-27T16:36:50.723Z,2.17
2019-01-27T16:39:19.413Z,2.00
2019-01-27T16:41:48.224Z,2.10
2019-01-27T16:44:16.964Z,2.03
2019-01-27T16:46:45.685Z,1.80
2019-01-27T16:49:14.334Z,2.20
2019-01-27T16:51:49.016Z,2.50
2019-01-27T16:54:13.504Z,2.40
2019-01-27T16:56:42.233Z,1.93
2019-01-27T16:59:10.945Z,1.90
2019-01-27T17:01:39.711Z,2.03
2019-01-27T17:04:08.451Z,2.43
2019-01-27T17:06:39.467Z,2.47
2019-01-27T17:09:11.103Z,2.37
2019-01-27T17:11:39.874Z,2.90
2019-01-27T17:14:08.606Z,2.20
2019-01-27T17:16:37.360Z,2.67
2019-01-27T17:19:06.111Z,2.03
2019-01-27T17:21:34.864Z,2.17
2019-01-27T17:24:03.640Z,2.07
2019-01-27T17:26:32.383Z,2.30
2019-01-27T17:29:01.151Z,2.10
2019-01-27T17:31:30.013Z,2.20
2019-01-27T17:33:58.908Z,2.57
2019-01-27T17:36:28.561Z,2.53
2019-01-27T17:38:57.275Z,2.27
2019-01-27T17:41:26.036Z,2.37
2019-01-27T17:43:54.746Z,2.27
2019-01-27T17:46:23.458Z,3.10
2019-01-27T17:48:52.167Z,2.47
2019-01-27T17:51:20.885Z,2.53
2019-01-27T17:53:59.738Z,2.50
2019-01-27T17:56:28.449Z,2.47
2019-01-27T17:59:14.693Z,2.40
2019-01-27T18:02:01.233Z,3.00
2019-01-27T18:04:37.589Z,2.67
2019-01-27T18:07:11.436Z,3.10
2019-01-27T18:09:50.077Z,2.47
2019-01-27T18:12:29.841Z,2.73
2019-01-27T18:14:58.574Z,3.00
2019-01-27T18:17:27.368Z,2.73
2019-01-27T18:19:56.206Z,2.87
2019-01-27T18:22:31.537Z,2.80
2019-01-27T18:25:00.419Z,2.77
2019-01-27T18:27:29.270Z,2.77
2019-01-27T18:29:58.121Z,2.60
2019-01-27T18:32:27.112Z,2.67
2019-01-27T18:34:55.891Z,2.90
2019-01-27T18:37:24.726Z,2.30
2019-01-27T18:39:53.491Z,2.43
2019-01-27T18:42:22.378Z,2.53
2019-01-27T18:44:51.127Z,2.57
2019-01-27T18:47:19.947Z,2.90
2019-01-27T18:49:48.960Z,2.97
2019-01-27T18:52:17.880Z,2.70
2019-01-27T18:55:06.647Z,2.57
2019-01-27T18:58:06.486Z,2.50
2019-01-27T19:00:47.012Z,2.90
2019-01-27T19:03:21.141Z,3.50
2019-01-27T19:06:07.115Z,2.63
2019-01-27T19:08:49.637Z,2.50
2019-01-27T19:11:55.686Z,2.43
2019-01-27T19:14:49.094Z,2.50
2019-01-27T19:17:42.080Z,2.77
2019-01-27T19:20:25.364Z,2.50
2019-01-27T19:23:12.640Z,2.83
2019-01-27T19:25:53.845Z,2.50
2019-01-27T19:28:56.587Z,2.67
2019-01-27T19:31:50.024Z,2.50
2019-01-27T19:34:33.817Z,2.80
2019-01-27T19:37:27.687Z,2.60
2019-01-27T19:40:21.683Z,2.53
2019-01-27T19:43:02.271Z,2.83
2019-01-27T19:45:52.847Z,2.43
2019-01-27T19:48:27.698Z,2.07
2019-01-27T19:51:07.804Z,2.20
2019-01-27T19:53:58.454Z,2.80
2019-01-27T19:56:55.066Z,2.27
2019-01-27T19:59:41.363Z,2.07
2019-01-27T20:02:31.904Z,2.10
2019-01-27T20:05:08.756Z,2.13
2019-01-27T20:07:59.630Z,1.50
2019-01-27T20:10:53.332Z,1.97
2019-01-27T20:13:38.068Z,1.70
2019-01-27T20:16:24.137Z,1.73
2019-01-27T20:19:03.318Z,1.60
2019-01-27T20:21:53.534Z,1.80
2019-01-27T20:24:32.892Z,1.87
2019-01-27T20:27:35.866Z,1.90
2019-01-27T20:30:23.348Z,1.90
2019-01-27T20:33:06.057Z,2.00
2019-01-27T20:35:43.453Z,2.20
2019-01-27T20:38:23.690Z,2.00
2019-01-27T20:41:17.626Z,1.60
2019-01-27T20:44:04.111Z,1.60
2019-01-27T20:47:01.117Z,1.83
2019-01-27T20:49:45.215Z,1.57
2019-01-27T20:52:48.249Z,1.50
2019-01-27T20:55:35.957Z,1.50
2019-01-27T20:58:36.080Z,1.87
2019-01-27T21:01:10.390Z,1.70
2019-01-27T21:04:04.201Z,1.60
2019-01-27T21:06:45.785Z,2.07
2019-01-27T21:09:25.816Z,1.53
2019-01-27T21:12:13.638Z,2.03
2019-01-27T21:15:16.713Z,2.57
2019-01-27T21:18:05.852Z,1.83
2019-01-27T21:20:34.670Z,1.70
2019-01-27T21:23:03.506Z,2.10
2019-01-27T21:25:32.348Z,2.00
2019-01-27T21:28:01.086Z,1.90
2019-01-27T21:30:29.887Z,2.00
2019-01-27T21:32:58.661Z,1.90
2019-01-27T21:35:27.591Z,1.80
2019-01-27T21:37:56.379Z,1.80
2019-01-27T23:43:37.342Z,1.80
2019-01-27T23:46:06.289Z,1.70
2019-01-27T23:48:35.130Z,1.37
2019-01-27T23:51:04.108Z,1.40
2019-01-27T23:53:32.998Z,1.10
2019-01-27T23:56:01.823Z,1.10
2019-01-27T23:58:30.703Z,1.40
